createdAt,value
2023-01-20T00:01:33.555Z,4.13
2023-01-20T00:04:01.792Z,3.72
2023-01-20T00:06:28.864Z,5.00
2023-01-20T00:08:59.361Z,4.38
2023-01-20T00:11:26.861Z,4.22
2023-01-20T00:13:54.503Z,4.32
2023-01-20T00:16:21.425Z,4.35
2023-01-20T00:18:48.235Z,3.97
2023-01-20T00:21:16.797Z,3.85
2023-01-20T00:23:44.453Z,2.95
2023-01-20T00:26:12.868Z,4.32
2023-01-20T00:28:39.685Z,3.03
2023-01-20T00:31:14.828Z,3.88
2023-01-20T00:33:41.879Z,4.30
2023-01-20T00:36:10.140Z,4.53
2023-01-20T00:38:38.629Z,4.03
2023-01-20T00:41:05.728Z,4.25
2023-01-20T00:43:32.732Z,4.32
2023-01-20T00:45:59.484Z,3.58
2023-01-20T00:48:26.182Z,4.78
2023-01-20T00:50:52.925Z,4.03
2023-01-20T00:53:19.602Z,4.00
2023-01-20T00:55:47.641Z,4.38
2023-01-20T00:58:14.366Z,4.47
2023-01-20T01:00:41.120Z,4.15
2023-01-20T01:03:07.948Z,4.05
2023-01-20T01:05:34.687Z,3.53
2023-01-20T01:08:01.380Z,4.55
2023-01-20T01:10:28.107Z,4.60
2023-01-20T01:12:56.159Z,5.70
2023-01-20T01:15:22.830Z,5.13
2023-01-20T01:17:49.680Z,4.82
2023-01-20T01:20:17.205Z,5.15
2023-01-20T01:22:43.910Z,4.72
2023-01-20T01:25:10.723Z,4.55
2023-01-20T01:27:37.432Z,5.05
2023-01-20T01:30:06.698Z,5.63
2023-01-20T01:32:33.529Z,5.55
2023-01-20T01:35:00.207Z,4.80
2023-01-20T01:37:27.950Z,5.18
2023-01-20T01:39:54.837Z,4.72
2023-01-20T01:42:25.331Z,4.97
2023-01-20T01:45:28.185Z,5.10
2023-01-20T01:48:01.909Z,4.93
2023-01-20T01:50:32.847Z,4.43
2023-01-20T01:53:00.105Z,5.25
2023-01-20T01:55:29.703Z,5.00
2023-01-20T01:57:58.524Z,4.35
2023-01-20T02:00:26.632Z,4.15
2023-01-20T02:02:54.646Z,4.15
2023-01-20T02:05:23.943Z,4.07
2023-01-20T02:07:51.191Z,4.60
2023-01-20T02:10:18.462Z,5.22
2023-01-20T02:12:47.746Z,4.20
2023-01-20T02:15:15.428Z,4.05
2023-01-20T02:17:57.340Z,4.03
2023-01-20T02:20:52.295Z,3.92
2023-01-20T02:23:33.315Z,3.63
2023-01-20T02:26:30.125Z,3.22
2023-01-20T02:29:36.256Z,3.38
2023-01-20T02:32:17.279Z,3.97
2023-01-20T02:34:49.723Z,3.70
2023-01-20T02:37:21.635Z,3.78
2023-01-20T02:39:58.465Z,4.15
2023-01-20T02:42:31.673Z,3.67
2023-01-20T02:45:04.676Z,4.57
2023-01-20T02:47:39.042Z,4.30
2023-01-20T02:50:09.871Z,3.85
2023-01-20T02:52:39.504Z,4.28
2023-01-20T02:55:10.527Z,4.05
2023-01-20T02:57:42.084Z,4.25
2023-01-20T03:00:15.472Z,4.80
2023-01-20T03:02:47.376Z,3.95
2023-01-20T03:05:18.775Z,4.78
2023-01-20T03:07:48.184Z,4.47
2023-01-20T03:10:18.834Z,4.80
2023-01-20T03:12:50.279Z,4.45
2023-01-20T03:15:20.343Z,4.25
2023-01-20T03:17:48.614Z,4.75
2023-01-20T03:20:16.058Z,4.95
2023-01-20T03:22:43.268Z,5.10
2023-01-20T03:27:51.983Z,5.57
2023-01-20T03:30:19.023Z,4.35
2023-01-20T03:32:49.962Z,4.47
2023-01-20T03:35:17.847Z,4.47
2023-01-20T03:37:45.374Z,4.40
2023-01-20T03:40:14.307Z,5.80
2023-01-20T03:42:50.187Z,4.20
2023-01-20T03:45:21.517Z,4.38
2023-01-20T03:47:56.686Z,4.65
2023-01-20T03:50:33.248Z,4.05
2023-01-20T03:53:06.051Z,5.00
2023-01-20T03:55:36.608Z,4.85
2023-01-20T03:58:07.578Z,5.20
2023-01-20T04:00:37.992Z,4.15
2023-01-20T04:03:11.648Z,4.75
2023-01-20T04:05:40.043Z,3.80
2023-01-20T04:08:09.777Z,4.38
2023-01-20T04:10:39.863Z,4.05
2023-01-20T04:13:06.596Z,4.38
2023-01-20T04:15:36.398Z,5.22
2023-01-20T04:18:15.406Z,4.57
2023-01-20T04:20:43.692Z,4.38
2023-01-20T04:23:17.060Z,5.78
2023-01-20T04:25:44.600Z,4.13
2023-01-20T04:28:11.437Z,4.78
2023-01-20T04:30:38.254Z,4.65
2023-01-20T04:33:05.219Z,4.57
2023-01-20T04:35:33.371Z,4.60
2023-01-20T04:38:00.189Z,4.45
2023-01-20T04:40:27.047Z,4.90
2023-01-20T04:42:53.778Z,5.43
2023-01-20T04:45:20.935Z,4.28
2023-01-20T04:47:47.670Z,4.35
2023-01-20T04:50:14.842Z,5.25
2023-01-20T04:52:43.127Z,4.20
2023-01-20T04:55:10.873Z,4.78
2023-01-20T04:57:37.797Z,4.72
2023-01-20T05:00:06.599Z,4.15
2023-01-20T05:02:33.438Z,4.57
2023-01-20T05:05:00.233Z,6.35
2023-01-20T05:07:26.982Z,5.78
2023-01-20T05:09:55.088Z,6.00
2023-01-20T05:12:21.804Z,4.97
2023-01-20T05:14:48.675Z,5.43
2023-01-20T05:17:15.405Z,6.18
2023-01-20T05:19:42.138Z,6.47
2023-01-20T05:22:09.038Z,6.78
2023-01-20T05:24:35.741Z,5.63
2023-01-20T05:27:04.178Z,6.35
2023-01-20T05:29:30.995Z,7.03
2023-01-20T05:31:57.723Z,6.63
2023-01-20T05:34:24.538Z,7.28
2023-01-20T05:36:52.293Z,7.45
2023-01-20T05:39:19.287Z,5.85
2023-01-20T05:41:46.271Z,6.55
2023-01-20T05:44:15.221Z,6.45
2023-01-20T05:46:42.033Z,6.32
2023-01-20T05:49:10.461Z,6.47
2023-01-20T05:51:37.172Z,6.55
2023-01-20T05:54:04.242Z,6.25
2023-01-20T05:56:30.987Z,6.47
2023-01-20T05:58:57.721Z,6.85
2023-01-20T06:01:25.853Z,6.65
2023-01-20T06:03:52.635Z,6.25
2023-01-20T06:06:19.372Z,6.57
2023-01-20T06:08:46.439Z,6.68
2023-01-20T06:11:13.472Z,6.95
2023-01-20T06:13:40.340Z,6.90
2023-01-20T06:16:07.849Z,7.05
2023-01-20T06:18:35.959Z,6.60
2023-01-20T06:21:02.761Z,6.70
2023-01-20T06:23:29.524Z,6.20
2023-01-20T06:26:00.579Z,6.85
2023-01-20T06:28:27.408Z,6.95
2023-01-20T06:31:00.012Z,7.25
2023-01-20T06:33:26.879Z,8.18
2023-01-20T06:35:55.556Z,6.57
2023-01-20T06:38:22.615Z,7.32
2023-01-20T06:40:49.345Z,7.32
2023-01-20T06:43:16.125Z,7.50
2023-01-20T06:45:42.889Z,7.32
2023-01-20T06:48:09.621Z,7.60
2023-01-20T06:50:36.350Z,7.95
2023-01-20T06:53:04.860Z,7.90
2023-01-20T06:55:31.593Z,8.77
2023-01-20T06:57:58.294Z,8.88
2023-01-20T07:00:25.506Z,8.60
2023-01-20T07:02:52.220Z,8.18
2023-01-20T07:05:18.938Z,9.55
2023-01-20T07:07:46.203Z,7.85
2023-01-20T07:10:14.359Z,7.95
2023-01-20T07:12:41.125Z,7.45
2023-01-20T07:15:08.808Z,7.38
2023-01-20T07:17:35.657Z,6.63
2023-01-20T07:20:02.408Z,7.28
2023-01-20T07:22:29.168Z,7.68
2023-01-20T07:24:55.908Z,6.20
2023-01-20T07:27:24.091Z,7.68
2023-01-20T07:29:50.799Z,6.95
2023-01-20T07:32:17.526Z,8.35
2023-01-20T07:34:44.254Z,7.07
2023-01-20T07:37:10.985Z,6.80
2023-01-20T07:39:37.709Z,6.15
2023-01-20T07:42:04.546Z,7.20
2023-01-20T07:44:33.732Z,6.95
2023-01-20T07:47:00.469Z,6.80
2023-01-20T07:49:27.619Z,5.65
2023-01-20T07:51:54.457Z,8.23
2023-01-20T07:54:21.292Z,6.35
2023-01-20T07:56:48.087Z,5.60
2023-01-20T07:59:14.805Z,7.15
2023-01-20T08:01:43.328Z,7.80
2023-01-20T08:04:10.133Z,6.82
2023-01-20T08:06:36.863Z,6.88
2023-01-20T08:09:03.654Z,7.20
2023-01-20T08:11:30.819Z,6.97
2023-01-20T08:13:57.568Z,6.97
2023-01-20T08:16:24.515Z,6.35
2023-01-20T08:18:54.582Z,7.07
2023-01-20T08:21:23.266Z,7.15
2023-01-20T08:23:50.416Z,6.18
2023-01-20T08:26:17.658Z,7.03
2023-01-20T08:28:44.461Z,6.05
2023-01-20T08:31:12.912Z,6.47
2023-01-20T08:33:40.614Z,6.93
2023-01-20T08:36:12.131Z,7.03
2023-01-20T08:38:39.901Z,6.53
2023-01-20T08:41:07.994Z,6.57
2023-01-20T08:43:34.731Z,6.85
2023-01-20T08:46:02.469Z,5.97
2023-01-20T08:48:29.669Z,7.15
2023-01-20T08:50:56.541Z,5.50
2023-01-20T08:53:24.819Z,7.22
2023-01-20T08:55:56.191Z,6.43
2023-01-20T08:58:25.213Z,6.68
2023-01-20T09:00:52.671Z,7.10
2023-01-20T09:03:19.968Z,6.63
2023-01-20T09:05:46.768Z,7.03
2023-01-20T09:08:14.056Z,7.88
2023-01-20T09:10:42.135Z,7.53
2023-01-20T09:13:09.083Z,6.57
2023-01-20T09:15:35.898Z,7.55
2023-01-20T09:18:02.743Z,6.30
2023-01-20T09:20:29.627Z,6.88
2023-01-20T09:22:56.560Z,6.53
2023-01-20T09:25:23.284Z,7.53
2023-01-20T09:27:51.469Z,6.40
2023-01-20T09:30:18.477Z,7.25
2023-01-20T09:32:45.232Z,6.93
2023-01-20T09:35:12.007Z,7.07
2023-01-20T09:37:38.723Z,6.07
2023-01-20T09:40:08.791Z,8.40
2023-01-20T09:42:50.432Z,6.47
2023-01-20T09:45:24.594Z,7.72
2023-01-20T09:47:51.356Z,7.32
2023-01-20T09:50:25.957Z,6.13
2023-01-20T09:53:01.579Z,7.57
2023-01-20T09:55:33.826Z,6.85
2023-01-20T09:58:08.539Z,6.55
2023-01-20T10:00:39.281Z,6.47
2023-01-20T10:03:13.570Z,6.50
2023-01-20T10:05:42.008Z,7.22
2023-01-20T10:08:13.755Z,8.40
2023-01-20T10:10:48.545Z,6.65
2023-01-20T10:13:21.394Z,7.38
2023-01-20T10:15:53.740Z,6.07
2023-01-20T10:18:26.499Z,6.07
2023-01-20T10:21:01.527Z,6.85
2023-01-20T10:23:34.587Z,8.30
2023-01-20T10:26:07.580Z,6.43
2023-01-20T10:28:38.837Z,6.65
2023-01-20T10:31:07.251Z,7.65
2023-01-20T10:33:37.840Z,8.02
2023-01-20T10:36:10.124Z,7.13
2023-01-20T10:38:50.671Z,7.65
2023-01-20T10:41:23.992Z,7.60
2023-01-20T10:43:50.771Z,6.28
2023-01-20T10:46:39.297Z,8.07
2023-01-20T10:49:37.350Z,7.72
2023-01-20T10:52:23.800Z,7.05
2023-01-20T10:54:59.180Z,7.38
2023-01-20T10:57:26.486Z,7.75
2023-01-20T10:59:56.852Z,7.65
2023-01-20T11:02:27.576Z,7.13
2023-01-20T11:04:58.275Z,6.32
2023-01-20T11:07:25.833Z,7.80
2023-01-20T11:09:52.619Z,6.25
2023-01-20T11:12:24.641Z,7.15
2023-01-20T11:14:54.914Z,7.95
2023-01-20T11:17:21.964Z,6.13
2023-01-20T11:19:52.759Z,8.30
2023-01-20T11:22:28.198Z,7.78
2023-01-20T11:24:55.832Z,7.43
2023-01-20T11:27:25.678Z,6.65
2023-01-20T11:29:57.315Z,6.80
2023-01-20T11:32:34.996Z,7.50
2023-01-20T11:35:20.497Z,6.53
2023-01-20T11:37:47.361Z,6.20
2023-01-20T11:40:23.052Z,6.97
2023-01-20T11:42:51.345Z,6.22
2023-01-20T11:45:30.006Z,7.80
2023-01-20T11:48:05.473Z,7.22
2023-01-20T11:50:36.314Z,6.68
2023-01-20T11:53:21.735Z,7.72
2023-01-20T11:55:54.277Z,7.82
2023-01-20T11:58:24.323Z,8.15
2023-01-20T12:00:58.888Z,6.28
2023-01-20T12:03:49.078Z,8.98
2023-01-20T12:06:23.025Z,7.47
2023-01-20T12:11:24.016Z,5.95
2023-01-20T12:14:04.840Z,8.70
2023-01-20T12:16:32.699Z,7.75
2023-01-20T12:19:03.314Z,8.02
2023-01-20T12:21:36.271Z,8.13
2023-01-20T12:24:09.563Z,7.45
2023-01-20T12:26:36.551Z,8.02
2023-01-20T12:29:12.384Z,9.00
2023-01-20T12:31:39.533Z,9.02
2023-01-20T12:34:12.067Z,9.07
2023-01-20T12:37:03.937Z,8.13
2023-01-20T12:39:58.373Z,7.80
2023-01-20T12:43:00.886Z,7.55
2023-01-20T12:45:41.321Z,8.45
2023-01-20T12:48:21.926Z,7.70
2023-01-20T12:51:04.649Z,8.68
2023-01-20T12:53:53.418Z,9.65
2023-01-20T12:56:31.143Z,8.60
2023-01-20T12:59:04.069Z,9.75
2023-01-20T13:01:43.879Z,8.75
2023-01-20T13:04:41.610Z,9.23
2023-01-20T13:07:34.907Z,8.48
2023-01-20T13:10:19.722Z,8.38
2023-01-20T13:12:55.262Z,8.70
2023-01-20T13:15:27.731Z,9.70
2023-01-20T13:18:23.809Z,9.52
2023-01-20T13:20:52.461Z,9.43
2023-01-20T13:23:23.574Z,9.30
2023-01-20T13:25:52.275Z,8.73
2023-01-20T13:28:21.353Z,8.45
2023-01-20T13:30:49.922Z,8.48
2023-01-20T13:33:26.425Z,8.00
2023-01-20T13:35:53.387Z,7.65
2023-01-20T13:38:23.430Z,7.60
2023-01-20T13:40:53.898Z,7.70
2023-01-20T13:43:58.140Z,7.70
2023-01-20T13:46:51.786Z,7.97
2023-01-20T13:49:24.421Z,7.40
2023-01-20T13:51:51.342Z,8.15
2023-01-20T13:54:38.062Z,7.78
2023-01-20T13:57:36.759Z,7.72
2023-01-20T14:00:16.046Z,7.63
2023-01-20T14:02:42.889Z,7.75
2023-01-20T14:05:32.075Z,7.57
2023-01-20T14:07:59.509Z,6.90
2023-01-20T14:10:26.724Z,7.20
2023-01-20T14:12:54.889Z,7.40
2023-01-20T14:15:35.036Z,7.72
2023-01-20T14:18:02.331Z,6.90
2023-01-20T14:20:30.297Z,6.95
2023-01-20T14:23:29.496Z,7.13
2023-01-20T14:26:01.320Z,6.47
2023-01-20T14:28:30.279Z,6.80
2023-01-20T14:31:15.067Z,6.45
2023-01-20T14:33:51.840Z,6.60
2023-01-20T14:36:21.312Z,6.63
2023-01-20T14:38:57.777Z,6.03
2023-01-20T14:41:31.426Z,6.57
2023-01-20T14:44:01.245Z,6.82
2023-01-20T14:46:29.872Z,6.97
2023-01-20T14:48:57.474Z,5.75
2023-01-20T14:51:24.682Z,7.78
2023-01-20T14:54:25.232Z,7.40
2023-01-20T14:56:52.011Z,7.20
2023-01-20T14:59:21.369Z,5.63
2023-01-20T15:01:56.517Z,6.53
2023-01-20T15:04:23.603Z,6.38
2023-01-20T15:06:55.993Z,5.60
2023-01-20T15:09:28.409Z,5.20
2023-01-20T15:12:28.491Z,6.65
2023-01-20T15:15:19.459Z,6.63
2023-01-20T15:18:16.320Z,6.95
2023-01-20T15:20:45.487Z,5.07
2023-01-20T15:23:22.688Z,7.25
2023-01-20T15:25:50.687Z,8.23
2023-01-20T15:28:23.864Z,7.90
2023-01-20T15:30:52.616Z,9.27
2023-01-20T15:33:19.785Z,8.88
2023-01-20T15:35:50.339Z,7.57
2023-01-20T15:38:17.092Z,7.75
2023-01-20T15:40:43.797Z,7.80
2023-01-20T15:43:15.031Z,10.98
2023-01-20T15:45:41.924Z,9.68
2023-01-20T15:48:15.018Z,9.88
2023-01-20T15:50:41.814Z,15.20
2023-01-20T15:53:09.806Z,11.35
2023-01-20T15:55:42.402Z,9.50
2023-01-20T15:58:21.156Z,11.15
2023-01-20T16:00:47.968Z,10.02
2023-01-20T16:03:16.093Z,9.82
2023-01-20T16:05:42.858Z,12.32
2023-01-20T16:08:15.874Z,14.43
2023-01-20T16:10:42.723Z,14.95
2023-01-20T16:13:10.080Z,23.58
2023-01-20T16:15:37.134Z,17.27
2023-01-20T16:18:04.141Z,12.55
2023-01-20T16:20:34.695Z,10.10
2023-01-20T16:23:01.421Z,10.80
2023-01-20T16:25:29.228Z,12.77
2023-01-20T16:27:56.546Z,11.48
2023-01-20T16:30:23.462Z,10.80
2023-01-20T16:32:50.345Z,10.18
2023-01-20T16:35:18.963Z,12.65
2023-01-20T16:37:47.756Z,15.95
2023-01-20T16:40:17.830Z,11.23
2023-01-20T16:42:44.825Z,28.08
2023-01-20T16:45:23.498Z,18.23
2023-01-20T16:47:50.432Z,21.33
2023-01-20T16:50:17.867Z,17.58
2023-01-20T16:52:44.998Z,15.23
2023-01-20T16:55:13.676Z,17.73
2023-01-20T16:57:40.456Z,24.35
2023-01-20T17:00:09.284Z,12.10
2023-01-20T17:02:36.023Z,9.68
2023-01-20T17:05:02.718Z,11.20
2023-01-20T17:07:29.449Z,12.40
2023-01-20T17:09:56.152Z,12.82
2023-01-20T17:12:24.532Z,7.57
2023-01-20T17:14:51.258Z,10.60
2023-01-20T17:17:18.548Z,9.18
2023-01-20T17:19:45.274Z,8.48
2023-01-20T17:22:12.009Z,8.30
2023-01-20T17:24:38.758Z,6.90
2023-01-20T17:27:05.479Z,7.50
2023-01-20T17:29:33.537Z,7.35
2023-01-20T17:32:00.273Z,7.38
2023-01-20T17:34:27.329Z,7.45
2023-01-20T17:36:54.075Z,7.18
2023-01-20T17:39:20.792Z,8.07
2023-01-20T17:41:47.523Z,6.32
2023-01-20T17:44:14.324Z,7.75
2023-01-20T17:46:42.410Z,6.75
2023-01-20T17:49:09.123Z,6.63
2023-01-20T17:51:35.863Z,7.70
2023-01-20T17:54:04.069Z,6.65
2023-01-20T17:56:31.628Z,6.60
2023-01-20T17:58:59.207Z,9.10
2023-01-20T18:01:27.821Z,6.68
2023-01-20T18:03:56.915Z,7.03
2023-01-20T18:06:24.975Z,8.85
2023-01-20T18:08:53.320Z,7.57
2023-01-20T18:11:21.877Z,10.18
2023-01-20T18:13:49.590Z,11.75
2023-01-20T18:16:18.667Z,8.80
2023-01-20T18:18:46.691Z,13.43
2023-01-20T18:21:16.765Z,8.35
2023-01-20T18:23:44.571Z,10.75
2023-01-20T18:26:12.234Z,15.32
2023-01-20T18:28:39.487Z,12.05
2023-01-20T18:31:08.157Z,8.90
2023-01-20T18:33:35.283Z,8.25
2023-01-20T18:36:02.373Z,10.18
2023-01-20T18:38:30.464Z,18.88
2023-01-20T18:40:57.184Z,7.78
2023-01-20T18:43:23.880Z,13.95
2023-01-20T18:45:52.989Z,29.98
2023-01-20T18:48:19.769Z,8.07
2023-01-20T18:50:46.514Z,17.50
2023-01-20T18:53:13.384Z,36.05
2023-01-20T18:55:41.449Z,12.27
2023-01-20T18:58:08.239Z,5.88
2023-01-20T19:00:34.981Z,6.70
2023-01-20T19:03:01.688Z,7.40
2023-01-20T19:05:28.409Z,7.90
2023-01-20T19:07:55.171Z,11.52
2023-01-20T19:10:22.725Z,8.25
2023-01-20T19:12:53.711Z,13.02
2023-01-20T19:15:20.416Z,10.90
2023-01-20T19:17:47.184Z,15.55
2023-01-20T19:20:14.780Z,16.42
2023-01-20T19:22:41.635Z,15.45
2023-01-20T19:25:09.164Z,7.43
2023-01-20T19:27:35.977Z,19.48
2023-01-20T19:30:04.582Z,12.35
2023-01-20T19:32:31.290Z,16.45
2023-01-20T19:34:58.814Z,14.30
2023-01-20T19:37:25.608Z,9.88
2023-01-20T19:39:52.342Z,7.13
2023-01-20T19:42:19.059Z,7.32
2023-01-20T19:44:45.784Z,7.10
2023-01-20T19:47:13.884Z,8.52
2023-01-20T19:49:40.621Z,9.68
2023-01-20T19:52:07.468Z,8.48
2023-01-20T19:54:34.195Z,7.43
2023-01-20T19:57:00.921Z,6.60
2023-01-20T19:59:27.692Z,6.97
2023-01-20T20:01:54.519Z,6.95
2023-01-20T20:04:22.578Z,6.72
2023-01-20T20:06:49.364Z,6.13
2023-01-20T20:09:18.003Z,6.22
2023-01-20T20:11:45.153Z,6.75
2023-01-20T20:14:13.830Z,7.18
2023-01-20T20:16:41.034Z,7.25
2023-01-20T20:19:09.179Z,6.32
2023-01-20T20:21:37.231Z,6.28
2023-01-20T20:24:04.491Z,5.60
2023-01-20T20:26:33.712Z,6.75
2023-01-20T20:29:02.255Z,6.25
2023-01-20T20:31:29.926Z,6.35
2023-01-20T20:33:57.019Z,4.93
2023-01-20T20:36:24.867Z,5.05
2023-01-20T20:38:52.984Z,5.82
2023-01-20T20:41:20.201Z,5.90
2023-01-20T20:43:47.194Z,5.65
2023-01-20T20:46:15.835Z,5.82
2023-01-20T20:48:42.744Z,5.78
2023-01-20T20:51:11.316Z,5.45
2023-01-20T20:53:38.167Z,5.93
2023-01-20T20:56:09.391Z,5.75
2023-01-20T20:58:36.745Z,5.80
2023-01-20T21:01:03.691Z,5.07
2023-01-20T21:03:31.093Z,5.20
2023-01-20T21:05:58.103Z,5.38
2023-01-20T21:08:25.183Z,5.30
2023-01-20T21:10:52.241Z,5.85
2023-01-20T21:13:20.572Z,5.10
2023-01-20T21:15:55.717Z,6.00
2023-01-20T21:18:22.487Z,5.88
2023-01-20T21:20:54.750Z,5.50
2023-01-20T21:23:21.628Z,5.20
2023-01-20T21:25:48.378Z,5.32
2023-01-20T21:28:15.141Z,5.85
2023-01-20T21:30:43.285Z,5.60
2023-01-20T21:33:10.226Z,5.72
2023-01-20T21:35:37.193Z,5.93
2023-01-20T21:38:03.924Z,8.02
2023-01-20T21:40:30.651Z,7.60
2023-01-20T21:42:57.387Z,7.50
2023-01-20T21:45:24.143Z,7.45
2023-01-20T21:47:52.206Z,5.90
2023-01-20T21:50:19.003Z,7.35
2023-01-20T21:52:45.769Z,6.50
2023-01-20T21:55:14.345Z,6.53
2023-01-20T21:57:41.141Z,5.68
2023-01-20T22:00:10.480Z,5.75
2023-01-20T22:02:37.293Z,5.97
2023-01-20T22:05:06.643Z,5.70
2023-01-20T22:07:33.366Z,5.30
2023-01-20T22:10:00.155Z,5.60
2023-01-20T22:12:26.908Z,5.75
2023-01-20T22:14:53.627Z,6.18
2023-01-20T22:17:20.385Z,6.13
2023-01-20T22:19:47.124Z,6.28
2023-01-20T22:22:15.429Z,5.47
2023-01-20T22:24:42.372Z,5.45
2023-01-20T22:27:09.224Z,6.38
2023-01-20T22:29:35.994Z,5.97
2023-01-20T22:32:02.790Z,6.50
2023-01-20T22:34:29.967Z,6.85
2023-01-20T22:36:56.960Z,5.47
2023-01-20T22:39:25.117Z,6.13
2023-01-20T22:41:51.834Z,6.30
2023-01-20T22:44:18.606Z,6.43
2023-01-20T22:46:45.356Z,6.93
2023-01-20T22:49:12.234Z,6.85
2023-01-20T22:51:39.037Z,6.85
2023-01-20T22:54:06.648Z,5.38
2023-01-20T22:56:34.750Z,6.07
2023-01-20T22:59:01.464Z,6.70
2023-01-20T23:01:31.457Z,7.70
2023-01-20T23:04:00.011Z,7.70
2023-01-20T23:06:28.267Z,7.88
2023-01-20T23:08:55.196Z,7.38
2023-01-20T23:11:23.247Z,7.63
2023-01-20T23:13:52.107Z,5.97
2023-01-20T23:16:20.718Z,7.20
2023-01-20T23:18:48.072Z,7.30
2023-01-20T23:21:15.199Z,7.90
2023-01-20T23:23:41.977Z,7.70
2023-01-20T23:26:12.544Z,7.03
2023-01-20T23:28:39.267Z,6.28
2023-01-20T23:31:08.824Z,7.28
2023-01-20T23:33:35.617Z,7.40
2023-01-20T23:36:06.797Z,7.40
2023-01-20T23:38:33.561Z,6.75
2023-01-20T23:41:00.422Z,7.90
2023-01-20T23:43:27.336Z,6.75
2023-01-20T23:45:56.944Z,7.55
2023-01-20T23:48:25.404Z,7.13
2023-01-20T23:50:52.262Z,6.55
2023-01-20T23:53:19.105Z,6.32
2023-01-20T23:55:46.059Z,6.53
2023-01-20T23:58:12.808Z,7.30
